createdAt,value
2018-12-20T00:01:43.400Z,31.77
2018-12-20T00:04:12.832Z,29.72
2018-12-20T00:06:42.274Z,28.62
2018-12-20T00:09:12.045Z,33.65
2018-12-20T00:11:41.985Z,27.30
2018-12-20T00:14:12.290Z,26.17
2018-12-20T00:16:44.472Z,32.25
2018-12-20T00:19:15.284Z,34.80
2018-12-20T00:21:44.788Z,27.62
2018-12-20T00:24:14.171Z,28.85
2018-12-20T00:26:43.595Z,31.10
2018-12-20T00:29:13.371Z,31.07
2018-12-20T00:31:42.953Z,35.63
2018-12-20T00:34:12.412Z,33.92
2018-12-20T00:36:41.839Z,36.40
2018-12-20T00:39:11.259Z,35.17
2018-12-20T00:41:40.711Z,41.10
2018-12-20T00:44:10.425Z,39.67
2018-12-20T00:46:39.925Z,41.63
2018-12-20T00:49:09.445Z,31.00
2018-12-20T00:51:38.773Z,30.80
2018-12-20T00:54:08.136Z,35.98
2018-12-20T00:56:38.700Z,37.60
2018-12-20T00:59:10.577Z,35.08
2018-12-20T01:01:42.167Z,33.42
2018-12-20T01:04:11.651Z,30.68
2018-12-20T01:06:42.223Z,37.90
2018-12-20T01:09:14.167Z,32.20
2018-12-20T01:11:43.901Z,31.27
2018-12-20T01:14:13.360Z,32.00
2018-12-20T01:16:42.943Z,35.90
2018-12-20T01:19:12.916Z,33.38
2018-12-20T01:21:42.242Z,32.98
2018-12-20T01:24:13.765Z,31.85
2018-12-20T01:26:46.991Z,39.13
2018-12-20T01:29:21.907Z,40.38
2018-12-20T01:31:55.430Z,32.00
2018-12-20T01:34:25.776Z,33.70
2018-12-20T01:36:55.124Z,31.20
2018-12-20T01:39:24.635Z,36.68
2018-12-20T01:41:54.003Z,34.18
2018-12-20T01:44:23.505Z,34.60
2018-12-20T01:46:52.788Z,32.10
2018-12-20T01:49:22.340Z,31.70
2018-12-20T01:51:54.217Z,36.30
2018-12-20T01:54:23.778Z,32.78
2018-12-20T01:56:53.208Z,31.00
2018-12-20T01:59:22.656Z,35.25
2018-12-20T02:01:52.522Z,37.45
2018-12-20T02:04:22.139Z,37.38
2018-12-20T02:06:51.753Z,37.73
2018-12-20T02:09:21.129Z,33.35
2018-12-20T02:11:50.496Z,35.90
2018-12-20T02:14:19.775Z,39.73
2018-12-20T02:16:49.410Z,33.40
2018-12-20T02:19:19.354Z,35.08
2018-12-20T02:21:53.157Z,31.35
2018-12-20T02:24:24.583Z,30.68
2018-12-20T02:26:54.018Z,29.40
2018-12-20T02:29:24.472Z,35.05
2018-12-20T02:31:56.918Z,35.15
2018-12-20T02:34:26.841Z,35.45
2018-12-20T02:36:56.694Z,32.65
2018-12-20T02:39:26.315Z,36.13
2018-12-20T02:41:56.203Z,30.62
2018-12-20T02:44:25.899Z,40.38
2018-12-20T02:46:55.282Z,30.27
2018-12-20T02:49:24.508Z,34.65
2018-12-20T02:51:53.933Z,29.60
2018-12-20T02:54:23.535Z,33.67
2018-12-20T02:56:53.046Z,30.95
2018-12-20T02:59:24.231Z,39.65
2018-12-20T03:01:53.679Z,41.92
2018-12-20T03:04:22.975Z,42.25
2018-12-20T03:06:52.785Z,33.78
2018-12-20T03:09:22.325Z,33.35
2018-12-20T03:11:51.734Z,36.58
2018-12-20T03:14:21.351Z,37.13
2018-12-20T03:16:50.802Z,35.95
2018-12-20T03:19:20.197Z,37.60
2018-12-20T03:21:49.824Z,34.13
2018-12-20T03:24:19.225Z,37.13
2018-12-20T03:26:48.507Z,34.13
2018-12-20T03:29:17.997Z,36.70
2018-12-20T03:31:47.334Z,37.78
2018-12-20T03:34:17.138Z,31.65
2018-12-20T03:36:46.846Z,40.03
2018-12-20T03:39:16.466Z,38.25
2018-12-20T03:41:45.794Z,33.80
2018-12-20T03:44:15.140Z,36.42
2018-12-20T03:46:44.802Z,39.15
2018-12-20T03:49:14.189Z,28.62
2018-12-20T03:51:43.534Z,38.73
2018-12-20T03:54:12.760Z,42.25
2018-12-20T03:56:42.080Z,46.73
2018-12-20T03:59:11.571Z,40.88
2018-12-20T04:01:40.887Z,39.55
2018-12-20T04:04:10.385Z,40.90
2018-12-20T04:06:40.104Z,34.67
2018-12-20T04:09:09.533Z,40.20
2018-12-20T04:11:38.947Z,38.45
2018-12-20T04:14:08.451Z,35.60
2018-12-20T04:16:38.041Z,42.03
2018-12-20T04:19:07.804Z,38.30
2018-12-20T04:21:37.180Z,44.67
2018-12-20T04:24:06.513Z,36.10
2018-12-20T04:26:36.370Z,37.38
2018-12-20T04:29:06.193Z,39.00
2018-12-20T04:31:35.479Z,39.50
2018-12-20T04:34:05.074Z,38.65
2018-12-20T04:36:34.615Z,38.53
2018-12-20T04:39:06.720Z,46.00
2018-12-20T04:41:36.531Z,40.85
2018-12-20T04:44:06.124Z,45.45
2018-12-20T04:46:35.698Z,37.25
2018-12-20T04:49:05.390Z,36.75
2018-12-20T04:51:34.842Z,44.23
2018-12-20T04:54:04.156Z,35.10
2018-12-20T04:56:33.587Z,36.35
2018-12-20T04:59:03.097Z,37.35
2018-12-20T05:01:32.494Z,37.40
2018-12-20T05:04:02.048Z,41.60
2018-12-20T05:06:31.403Z,37.78
2018-12-20T05:09:00.847Z,39.67
2018-12-20T05:11:30.585Z,42.08
2018-12-20T05:14:00.205Z,48.95
2018-12-20T05:16:29.790Z,42.05
2018-12-20T05:18:59.240Z,43.95
2018-12-20T05:21:29.383Z,41.08
2018-12-20T05:23:58.891Z,39.23
2018-12-20T05:26:28.483Z,43.52
2018-12-20T05:28:57.928Z,38.53
2018-12-20T05:31:27.195Z,41.88
2018-12-20T05:33:56.851Z,43.17
2018-12-20T05:36:26.326Z,41.63
2018-12-20T05:38:55.843Z,37.95
2018-12-20T05:41:25.295Z,39.55
2018-12-20T05:43:54.904Z,39.50
2018-12-20T05:46:24.996Z,43.30
2018-12-20T05:48:54.513Z,38.80
2018-12-20T05:51:24.007Z,37.40
2018-12-20T05:53:53.421Z,42.48
2018-12-20T05:56:22.809Z,41.45
2018-12-20T05:58:52.310Z,41.33
2018-12-20T06:01:21.587Z,44.45
2018-12-20T06:03:51.168Z,54.55
2018-12-20T06:06:20.573Z,37.88
2018-12-20T06:08:49.944Z,43.63
2018-12-20T06:11:19.861Z,46.05
2018-12-20T06:13:49.426Z,44.60
2018-12-20T06:16:18.670Z,39.15
2018-12-20T06:18:48.032Z,44.35
2018-12-20T06:21:17.338Z,47.93
2018-12-20T06:23:46.623Z,41.60
2018-12-20T06:26:16.906Z,39.60
2018-12-20T06:28:46.296Z,42.55
2018-12-20T06:31:15.771Z,46.55
2018-12-20T06:33:45.603Z,50.85
2018-12-20T06:36:14.882Z,44.45
2018-12-20T06:38:44.214Z,50.60
2018-12-20T06:41:14.916Z,45.52
2018-12-20T06:43:44.223Z,53.68
2018-12-20T06:46:20.864Z,40.23
2018-12-20T06:48:45.411Z,43.90
2018-12-20T06:51:14.883Z,48.13
2018-12-20T06:53:44.135Z,37.73
2018-12-20T06:56:13.842Z,39.00
2018-12-20T06:58:43.241Z,40.58
2018-12-20T07:01:12.647Z,42.00
2018-12-20T07:03:42.048Z,43.38
2018-12-20T07:06:11.631Z,44.23
2018-12-20T07:08:41.352Z,42.33
2018-12-20T07:11:10.766Z,49.38
2018-12-20T07:13:40.304Z,45.15
2018-12-20T07:16:09.665Z,49.27
2018-12-20T07:18:39.400Z,45.35
2018-12-20T07:21:08.760Z,44.35
2018-12-20T07:23:38.068Z,47.03
2018-12-20T07:26:07.548Z,46.75
2018-12-20T07:28:36.833Z,42.40
2018-12-20T07:31:06.107Z,45.30
2018-12-20T07:33:35.512Z,44.40
2018-12-20T07:36:04.812Z,47.85
2018-12-20T07:38:34.257Z,47.33
2018-12-20T07:41:03.770Z,46.88
2018-12-20T07:43:34.158Z,43.23
2018-12-20T07:46:03.553Z,49.65
2018-12-20T07:48:33.591Z,45.35
2018-12-20T07:51:03.647Z,52.70
2018-12-20T07:53:33.147Z,48.73
2018-12-20T07:56:03.419Z,49.33
2018-12-20T07:58:32.823Z,40.55
2018-12-20T08:01:02.584Z,46.15
2018-12-20T08:03:35.888Z,52.48
2018-12-20T08:06:05.423Z,52.35
2018-12-20T08:08:35.026Z,54.23
2018-12-20T08:11:04.808Z,35.63
2018-12-20T08:13:34.114Z,48.23
2018-12-20T08:16:04.723Z,55.88
2018-12-20T08:18:34.083Z,48.85
2018-12-20T08:21:03.536Z,44.33
2018-12-20T08:23:33.222Z,45.95
2018-12-20T08:26:02.769Z,47.85
2018-12-20T08:28:32.312Z,52.45
2018-12-20T08:31:03.046Z,42.05
2018-12-20T08:33:32.394Z,42.45
2018-12-20T08:36:01.685Z,44.18
2018-12-20T08:38:31.024Z,46.02
2018-12-20T08:41:00.514Z,45.85
2018-12-20T08:43:30.129Z,49.50
2018-12-20T08:45:59.625Z,54.35
2018-12-20T08:48:28.939Z,44.77
2018-12-20T08:50:59.238Z,48.90
2018-12-20T08:53:28.838Z,45.30
2018-12-20T08:55:58.938Z,47.10
2018-12-20T08:58:29.386Z,45.23
2018-12-20T09:00:58.748Z,52.53
2018-12-20T09:03:29.573Z,45.85
2018-12-20T09:05:59.050Z,41.75
2018-12-20T09:08:28.353Z,47.35
2018-12-20T09:10:58.381Z,55.55
2018-12-20T09:13:27.691Z,44.38
2018-12-20T09:15:57.175Z,43.85
2018-12-20T09:18:27.208Z,47.88
2018-12-20T09:20:56.546Z,42.48
2018-12-20T09:23:26.279Z,38.83
2018-12-20T09:25:56.148Z,43.00
2018-12-20T09:28:25.830Z,49.67
2018-12-20T09:30:55.466Z,53.40
2018-12-20T09:33:24.838Z,50.08
2018-12-20T09:35:54.277Z,44.05
2018-12-20T09:38:23.605Z,44.70
2018-12-20T09:40:53.159Z,40.00
2018-12-20T09:43:22.512Z,43.17
2018-12-20T09:45:51.825Z,40.90
2018-12-20T09:48:22.872Z,53.48
2018-12-20T09:50:52.179Z,44.90
2018-12-20T09:53:21.837Z,49.08
2018-12-20T09:55:51.247Z,43.48
2018-12-20T09:58:20.812Z,46.42
2018-12-20T10:00:50.217Z,49.75
2018-12-20T10:03:19.791Z,49.93
2018-12-20T10:05:49.157Z,47.65
2018-12-20T10:08:18.592Z,56.37
2018-12-20T10:10:47.998Z,47.40
2018-12-20T10:13:17.540Z,59.30
2018-12-20T10:15:48.977Z,58.00
2018-12-20T10:18:19.525Z,58.08
2018-12-20T10:20:48.971Z,53.30
2018-12-20T10:23:18.244Z,53.17
2018-12-20T10:25:47.852Z,51.68
2018-12-20T10:28:17.332Z,49.53
2018-12-20T10:30:46.639Z,58.23
2018-12-20T10:33:17.715Z,57.03
2018-12-20T10:35:47.385Z,52.98
2018-12-20T10:38:16.913Z,54.90
2018-12-20T10:40:47.206Z,61.90
2018-12-20T10:43:18.658Z,60.43
2018-12-20T10:45:48.389Z,56.45
2018-12-20T10:48:18.952Z,53.35
2018-12-20T10:50:48.259Z,56.80
2018-12-20T10:53:17.955Z,54.80
2018-12-20T10:55:48.520Z,52.67
2018-12-20T10:58:17.966Z,64.37
2018-12-20T11:00:53.160Z,53.30
2018-12-20T11:03:30.083Z,68.28
2018-12-20T11:06:04.343Z,67.03
2018-12-20T11:08:35.666Z,62.55
2018-12-20T11:11:09.998Z,60.28
2018-12-20T11:13:39.370Z,70.85
2018-12-20T11:16:08.745Z,67.03
2018-12-20T11:18:38.892Z,60.45
2018-12-20T11:21:08.177Z,75.85
2018-12-20T11:23:37.415Z,61.33
2018-12-20T11:26:06.915Z,66.97
2018-12-20T11:28:36.182Z,61.95
2018-12-20T11:31:05.488Z,60.67
2018-12-20T11:33:34.864Z,70.15
2018-12-20T11:36:04.282Z,59.67
2018-12-20T11:38:33.557Z,61.92
2018-12-20T11:41:03.354Z,53.75
2018-12-20T11:43:32.895Z,58.20
2018-12-20T11:46:02.193Z,58.90
2018-12-20T11:48:31.850Z,63.23
2018-12-20T11:51:01.265Z,59.20
2018-12-20T12:00:36.938Z,60.43
2018-12-20T12:03:06.709Z,58.85
2018-12-20T12:05:35.992Z,57.90
2018-12-20T12:08:05.620Z,60.92
2018-12-20T12:10:34.949Z,57.65
2018-12-20T12:13:05.268Z,55.17
2018-12-20T12:15:35.434Z,61.80
2018-12-20T12:18:11.202Z,58.00
2018-12-20T12:20:41.392Z,56.75
2018-12-20T12:23:10.813Z,54.80
2018-12-20T12:25:40.293Z,55.10
2018-12-20T12:28:09.920Z,54.63
2018-12-20T12:30:41.244Z,55.23
2018-12-20T12:33:10.651Z,54.50
2018-12-20T12:35:39.926Z,51.10
2018-12-20T12:38:09.238Z,52.73
2018-12-20T12:40:38.607Z,47.83
2018-12-20T12:43:07.932Z,60.43
2018-12-20T12:45:37.250Z,54.67
2018-12-20T12:48:08.383Z,57.95
2018-12-20T12:50:37.693Z,56.70
2018-12-20T12:53:07.040Z,53.35
2018-12-20T12:55:36.944Z,62.35
2018-12-20T12:58:06.261Z,60.90
2018-12-20T13:00:35.559Z,51.35
2018-12-20T13:03:05.067Z,55.17
2018-12-20T13:05:36.348Z,49.75
2018-12-20T13:08:05.731Z,54.13
2018-12-20T13:10:35.093Z,53.73
2018-12-20T13:13:04.360Z,57.33
2018-12-20T13:15:35.840Z,49.88
2018-12-20T13:18:13.589Z,63.17
2018-12-20T13:20:36.477Z,61.85
2018-12-20T13:23:08.187Z,53.35
2018-12-20T13:25:37.946Z,56.88
2018-12-20T13:28:07.341Z,47.83
2018-12-20T13:30:36.822Z,57.45
2018-12-20T13:33:06.111Z,50.38
2018-12-20T13:35:35.467Z,58.83
2018-12-20T13:38:05.045Z,55.60
2018-12-20T13:40:38.627Z,56.83
2018-12-20T13:43:09.033Z,53.73
2018-12-20T13:45:38.344Z,57.27
2018-12-20T13:48:08.106Z,60.45
2018-12-20T13:50:37.495Z,58.52
2018-12-20T13:53:06.737Z,56.40
2018-12-20T13:55:36.178Z,52.25
2018-12-20T13:58:05.463Z,56.23
2018-12-20T14:00:34.838Z,54.13
2018-12-20T14:03:04.242Z,63.38
2018-12-20T14:05:33.689Z,54.40
2018-12-20T14:08:03.449Z,58.70
2018-12-20T14:10:32.706Z,59.55
2018-12-20T14:13:02.365Z,64.53
2018-12-20T14:15:31.764Z,52.67
2018-12-20T14:18:01.193Z,58.02
2018-12-20T14:20:30.682Z,64.37
2018-12-20T14:23:00.259Z,54.70
2018-12-20T14:25:29.911Z,61.33
2018-12-20T14:27:59.395Z,56.98
2018-12-20T14:30:28.774Z,51.95
2018-12-20T14:32:58.124Z,60.45
2018-12-20T14:35:27.564Z,54.93
2018-12-20T14:37:57.036Z,62.43
2018-12-20T14:40:26.305Z,56.80
2018-12-20T14:42:55.904Z,54.67
2018-12-20T14:45:25.308Z,57.65
2018-12-20T14:47:54.641Z,58.17
2018-12-20T14:50:24.048Z,55.08
2018-12-20T14:52:53.888Z,58.20
2018-12-20T14:55:25.537Z,54.67
2018-12-20T14:57:55.376Z,56.63
2018-12-20T15:00:24.737Z,57.60
2018-12-20T15:02:56.404Z,58.45
2018-12-20T15:05:26.872Z,55.12
2018-12-20T15:07:56.233Z,58.90
2018-12-20T15:10:25.531Z,57.38
2018-12-20T15:12:55.500Z,57.95
2018-12-20T15:15:24.928Z,50.58
2018-12-20T15:17:54.343Z,64.40
2018-12-20T15:20:23.821Z,55.43
2018-12-20T15:22:53.258Z,53.55
2018-12-20T15:25:22.712Z,57.67
2018-12-20T15:27:52.132Z,60.90
2018-12-20T15:30:21.606Z,62.50
2018-12-20T15:32:50.891Z,64.42
2018-12-20T15:35:20.259Z,56.08
2018-12-20T15:37:49.544Z,53.05
2018-12-20T15:40:18.851Z,55.98
2018-12-20T15:42:48.441Z,55.60
2018-12-20T15:45:17.833Z,56.58
2018-12-20T15:47:47.135Z,49.67
2018-12-20T15:50:16.973Z,50.20
2018-12-20T15:52:46.389Z,48.13
2018-12-20T15:55:15.769Z,66.85
2018-12-20T15:57:45.128Z,64.00
2018-12-20T16:00:14.379Z,63.05
2018-12-20T16:02:43.871Z,46.65
2018-12-20T16:05:13.170Z,59.00
2018-12-20T16:07:42.649Z,46.45
2018-12-20T16:10:11.936Z,48.30
2018-12-20T16:12:41.582Z,50.48
2018-12-20T16:15:11.651Z,52.93
2018-12-20T16:17:41.166Z,52.10
2018-12-20T16:20:10.618Z,65.78
2018-12-20T16:22:39.901Z,57.20
2018-12-20T16:25:09.482Z,54.35
2018-12-20T16:27:39.549Z,55.55
2018-12-20T16:30:10.897Z,53.68
2018-12-20T16:32:40.265Z,52.35
2018-12-20T16:35:09.770Z,50.30
2018-12-20T16:37:39.299Z,54.27
2018-12-20T16:40:09.311Z,49.50
2018-12-20T16:42:38.534Z,56.05
2018-12-20T16:45:08.528Z,61.28
2018-12-20T16:47:38.357Z,59.20
2018-12-20T16:50:09.554Z,56.98
2018-12-20T16:52:39.037Z,53.17
2018-12-20T16:55:08.801Z,51.85
2018-12-20T16:57:38.143Z,61.35
2018-12-20T17:00:09.553Z,51.53
2018-12-20T17:02:39.092Z,55.03
2018-12-20T17:05:08.438Z,55.28
2018-12-20T17:07:38.246Z,57.35
2018-12-20T17:10:09.128Z,59.77
2018-12-20T17:12:38.561Z,65.62
2018-12-20T17:15:08.115Z,53.48
2018-12-20T17:17:37.307Z,54.05
2018-12-20T17:20:07.799Z,49.58
2018-12-20T17:22:38.118Z,56.80
2018-12-20T17:25:07.599Z,61.63
2018-12-20T17:27:36.927Z,80.12
2018-12-20T17:30:08.372Z,56.15
2018-12-20T17:32:37.649Z,55.12
2018-12-20T17:35:07.222Z,75.05
2018-12-20T17:37:36.605Z,60.00
2018-12-20T17:40:06.872Z,52.00
2018-12-20T17:42:36.165Z,96.15
2018-12-20T17:45:07.635Z,84.30
2018-12-20T17:47:37.049Z,59.93
2018-12-20T17:50:07.404Z,59.58
2018-12-20T17:52:36.827Z,58.23
2018-12-20T17:55:06.540Z,57.10
2018-12-20T17:57:35.965Z,58.73
2018-12-20T18:00:09.340Z,58.15
2018-12-20T18:02:38.788Z,52.08
2018-12-20T18:05:08.349Z,55.00
2018-12-20T18:07:38.313Z,60.38
2018-12-20T18:10:11.706Z,57.65
2018-12-20T18:12:41.085Z,54.80
2018-12-20T18:15:12.591Z,60.95
2018-12-20T18:17:42.050Z,60.43
2018-12-20T18:20:11.367Z,60.78
2018-12-20T18:22:41.215Z,60.35
2018-12-20T18:25:10.463Z,60.50
2018-12-20T18:27:39.852Z,61.83
2018-12-20T18:30:11.917Z,65.12
2018-12-20T18:32:41.291Z,65.25
2018-12-20T18:35:10.519Z,74.65
2018-12-20T18:37:39.841Z,72.55
2018-12-20T18:40:10.105Z,79.65
2018-12-20T18:42:39.446Z,68.07
2018-12-20T18:45:09.544Z,64.35
2018-12-20T18:47:38.938Z,66.42
2018-12-20T18:50:13.131Z,67.05
2018-12-20T18:52:42.517Z,61.02
2018-12-20T18:55:12.762Z,69.05
2018-12-20T18:57:42.183Z,57.78
2018-12-20T19:00:11.527Z,69.40
2018-12-20T19:02:40.873Z,71.37
2018-12-20T19:05:10.303Z,71.95
2018-12-20T19:07:39.608Z,58.65
2018-12-20T19:10:09.253Z,53.42
2018-12-20T19:12:38.525Z,64.20
2018-12-20T19:15:09.176Z,57.08
2018-12-20T19:17:38.545Z,65.10
2018-12-20T19:20:15.989Z,60.35
2018-12-20T19:22:40.975Z,58.60
2018-12-20T19:25:10.200Z,66.77
2018-12-20T19:27:39.435Z,61.37
2018-12-20T19:30:10.477Z,53.52
2018-12-20T19:32:39.787Z,48.98
2018-12-20T19:35:09.173Z,55.58
2018-12-20T19:37:38.445Z,63.45
2018-12-20T19:40:09.900Z,58.05
2018-12-20T19:42:39.343Z,56.33
2018-12-20T19:45:09.327Z,56.08
2018-12-20T19:47:38.620Z,52.30
2018-12-20T19:50:09.903Z,61.95
2018-12-20T19:52:39.324Z,58.70
2018-12-20T19:55:08.565Z,54.40
2018-12-20T19:57:37.834Z,58.50
2018-12-20T20:00:11.336Z,54.93
2018-12-20T20:02:40.605Z,52.10
2018-12-20T20:05:09.973Z,54.23
2018-12-20T20:07:39.388Z,57.65
2018-12-20T20:10:10.778Z,64.40
2018-12-20T20:12:40.093Z,57.80
2018-12-20T20:15:16.372Z,50.23
2018-12-20T20:17:44.362Z,60.45
2018-12-20T20:20:15.096Z,58.52
2018-12-20T20:22:44.362Z,51.18
2018-12-20T20:25:13.830Z,51.50
2018-12-20T20:27:45.447Z,54.67
2018-12-20T20:30:15.854Z,46.80
2018-12-20T20:32:45.951Z,44.48
2018-12-20T20:35:15.197Z,49.05
2018-12-20T20:37:44.768Z,46.65
2018-12-20T20:40:14.070Z,50.43
2018-12-20T20:42:43.348Z,73.85
2018-12-20T20:45:12.982Z,43.28
2018-12-20T20:47:43.340Z,47.30
2018-12-20T20:50:12.715Z,46.02
2018-12-20T20:52:42.068Z,49.20
2018-12-20T20:55:11.719Z,35.83
2018-12-20T20:57:40.955Z,47.25
2018-12-20T21:00:12.564Z,36.90
2018-12-20T21:02:42.063Z,39.10
2018-12-20T21:05:12.334Z,39.13
2018-12-20T21:07:41.864Z,41.65
2018-12-20T21:10:12.220Z,39.23
2018-12-20T21:12:41.555Z,45.95
2018-12-20T21:15:12.151Z,42.62
2018-12-20T21:17:42.618Z,46.85
2018-12-20T21:20:13.627Z,97.12
2018-12-20T21:22:42.999Z,57.17
2018-12-20T21:25:12.347Z,60.48
2018-12-20T21:27:41.809Z,62.95
2018-12-20T21:30:11.094Z,38.95
2018-12-20T21:32:40.333Z,33.38
2018-12-20T21:35:09.790Z,36.10
2018-12-20T21:37:39.205Z,38.05
2018-12-20T21:40:08.680Z,34.33
2018-12-20T21:42:38.117Z,37.95
2018-12-20T21:45:09.297Z,41.65
2018-12-20T21:47:39.767Z,36.95
2018-12-20T21:50:11.073Z,35.03
2018-12-20T21:52:40.371Z,43.75
2018-12-20T21:55:10.454Z,36.98
2018-12-20T21:57:40.861Z,39.27
2018-12-20T22:00:11.071Z,34.75
2018-12-20T22:02:40.303Z,61.30
2018-12-20T22:05:09.728Z,39.40
2018-12-20T22:07:39.414Z,64.30
2018-12-20T22:10:09.158Z,35.15
2018-12-20T22:12:39.555Z,42.45
2018-12-20T22:15:09.017Z,40.43
2018-12-20T22:17:38.429Z,41.45
2018-12-20T22:20:08.088Z,43.50
2018-12-20T22:22:37.423Z,37.67
2018-12-20T22:25:07.760Z,36.75
2018-12-20T22:27:37.180Z,44.38
2018-12-20T22:30:08.717Z,45.23
2018-12-20T22:32:38.053Z,48.75
2018-12-20T22:35:07.689Z,43.13
2018-12-20T22:37:37.233Z,41.92
2018-12-20T22:40:09.009Z,38.65
2018-12-20T22:42:38.437Z,35.10
2018-12-20T22:45:09.128Z,39.70
2018-12-20T22:47:38.605Z,35.73
2018-12-20T22:50:10.057Z,46.40
2018-12-20T22:52:39.489Z,38.85
2018-12-20T22:55:09.515Z,42.25
2018-12-20T22:57:38.816Z,44.80
2018-12-20T23:00:10.110Z,38.40
2018-12-20T23:02:39.621Z,31.00
2018-12-20T23:05:08.934Z,35.92
2018-12-20T23:07:38.312Z,36.95
2018-12-20T23:10:08.210Z,29.57
2018-12-20T23:12:37.499Z,39.25
2018-12-20T23:15:07.010Z,33.65
2018-12-20T23:17:36.840Z,33.48
2018-12-20T23:20:07.318Z,31.42
2018-12-20T23:22:36.584Z,36.90
2018-12-20T23:25:07.144Z,30.10
2018-12-20T23:27:36.541Z,32.08
2018-12-20T23:30:06.005Z,30.55
2018-12-20T23:32:35.357Z,36.33
2018-12-20T23:35:04.995Z,31.82
2018-12-20T23:37:34.314Z,29.70
2018-12-20T23:40:04.298Z,31.57
2018-12-20T23:42:34.103Z,32.38
2018-12-20T23:45:08.966Z,34.20
2018-12-20T23:47:38.576Z,30.92
2018-12-20T23:50:07.985Z,31.48
2018-12-20T23:52:38.376Z,36.80
2018-12-20T23:55:08.020Z,36.17
2018-12-20T23:57:37.418Z,34.65
